Arabela, New Mexico
Current Conditions -  °F | °C
As of 3:55 PM on Sunday 21 Dec 2014 (Local Time) from KSRR Reporting Station
Clear Clear  
Wind Chill:   Ceiling: Unl
Heat Index:   Visibility: 10mi
Dew Point: -5°   Wind: 15mph
Humidity: 37%   Direction: 300°WNW
Pressure: 29.9"   Gusts: 33mph
Location:  33.282°N, 105.13°W
Report Text: KSRR 212255Z AUTO 30013G29KT 10SM CLR 09/M05 A2990 RMK AO2
Loading
Personal Weather Stations






























Interactive Weather Map New forecast layout! Learn more

10-Day Weather Forecast

Advertisements
Track Severe Weather on mobile